Time;durP1;ratioP1;P1;durP2;ratioP2;P2;SDS_P1;SDS_P2;PMS_P1;PMS_P2;Temp;Humidity;BMP_temperature;BMP_pressure;BME280_temperature;BME280_humidity;BME280_pressure;Samples;Min_cycle;Max_cycle;Signal;HPM_P1;HPM_P2
2024/02/08 00:01:43;;;;;;;0.00;0.00;;;;;;;1.23;73.01;100016.63;15793020;28;20036;-47
2024/02/08 00:09:18;;;;;;;0.00;0.00;;;;;;;1.06;73.24;100009.69;15805410;28;20044;-47
2024/02/08 00:16:53;;;;;;;0.22;0.22;;;;;;;0.97;73.35;100022.09;15793265;28;20064;-47
2024/02/08 00:24:30;;;;;;;0.00;0.00;;;;;;;0.99;72.91;99996.34;15836307;28;20178;-50
2024/02/08 00:32:05;;;;;;;0.00;0.00;;;;;;;0.99;73.35;99997.16;15800985;28;20044;-54
2024/02/08 00:39:43;;;;;;;0.00;0.00;;;;;;;0.81;73.91;99999.16;15798263;28;20123;-51
2024/02/08 00:47:24;;;;;;;0.00;0.00;;;;;;;0.67;73.33;99991.88;15828305;28;20104;-46
2024/02/08 00:55:01;;;;;;;0.00;0.00;;;;;;;0.60;73.57;100002.25;15856324;28;20378;-48
2024/02/08 01:02:39;;;;;;;0.20;0.20;;;;;;;0.63;73.40;100001.13;15805569;28;20185;-49
2024/02/08 01:10:15;;;;;;;0.00;0.00;;;;;;;0.48;74.18;99996.50;15856254;28;20047;-47
2024/02/08 01:17:51;;;;;;;0.00;0.00;;;;;;;0.47;74.20;99994.03;15793030;28;20136;-50
2024/02/08 01:25:27;;;;;;;0.00;0.00;;;;;;;0.40;73.87;100001.75;15799271;28;20040;-50
2024/02/08 01:33:02;;;;;;;0.13;0.13;;;;;;;0.20;74.08;99998.59;15796940;28;20135;-50
2024/02/08 01:40:40;;;;;;;2.20;0.77;;;;;;;0.28;75.76;99995.16;15809319;28;20406;-49
2024/02/08 01:48:16;;;;;;;0.10;0.10;;;;;;;0.52;74.48;99989.06;15812414;28;20382;-51
2024/02/08 01:55:52;;;;;;;0.10;0.10;;;;;;;0.37;74.59;99978.31;15808301;28;20055;-50
2024/02/08 02:03:28;;;;;;;0.00;0.00;;;;;;;0.52;73.95;99967.94;15840195;28;20084;-49
2024/02/08 02:11:11;;;;;;;0.00;0.00;;;;;;;-0.32;78.73;99966.28;15804199;28;20044;-47
2024/02/08 02:18:45;;;;;;;0.00;0.00;;;;;;;0.29;78.42;99956.38;15812327;28;20071;-48
2024/02/08 02:26:22;;;;;;;0.00;0.00;;;;;;;0.62;75.93;99949.31;15809893;28;20048;-46
2024/02/08 02:33:57;;;;;;;0.00;0.00;;;;;;;0.36;75.71;99900.13;15797332;28;20157;-49
2024/02/08 02:41:32;;;;;;;0.10;0.10;;;;;;;0.49;75.30;99947.97;15805973;28;20113;-47
2024/02/08 02:49:05;;;;;;;0.00;0.00;;;;;;;0.63;74.82;99950.94;15798109;28;20054;-49
2024/02/08 02:56:42;;;;;;;0.00;0.00;;;;;;;0.56;74.77;99949.94;15803198;28;20044;-49
2024/02/08 03:04:16;;;;;;;0.68;0.68;;;;;;;0.43;75.54;99953.91;15811846;28;20040;-48
2024/02/08 03:11:52;;;;;;;0.00;0.00;;;;;;;0.43;75.09;99935.44;15834452;28;20062;-50
2024/02/08 03:19:28;;;;;;;0.00;0.00;;;;;;;0.42;75.24;99931.16;15848933;28;20044;-48
2024/02/08 03:27:05;;;;;;;0.00;0.00;;;;;;;0.08;77.19;99933.91;15841686;28;20511;-51
2024/02/08 03:34:41;;;;;;;0.00;0.00;;;;;;;0.46;76.43;99935.09;15859317;28;20138;-46
2024/02/08 03:42:16;;;;;;;0.30;0.30;;;;;;;0.53;76.82;99931.81;15840105;28;20051;-48
2024/02/08 03:49:51;;;;;;;0.00;0.00;;;;;;;0.43;77.10;99926.69;15834615;28;20036;-48
2024/02/08 03:57:29;;;;;;;0.15;0.15;;;;;;;0.62;77.31;99914.97;15853749;28;20071;-48
2024/02/08 04:05:06;;;;;;;0.10;0.10;;;;;;;0.47;77.13;99926.19;15837534;28;20039;-46
2024/02/08 05:00:01;;;;;;;0.00;0.00;;;;;;;-0.83;82.25;99917.94;15841799;28;20169;-48
2024/02/08 05:07:36;;;;;;;0.55;0.50;;;;;;;-0.44;81.79;99922.72;15852699;28;20097;-49
2024/02/08 05:15:12;;;;;;;0.00;0.00;;;;;;;-0.43;82.22;99917.28;15845249;28;20322;-46
2024/02/08 05:22:46;;;;;;;0.00;0.00;;;;;;;0.11;80.57;99927.47;15866339;28;20043;-51
2024/02/08 05:30:22;;;;;;;0.05;0.05;;;;;;;0.20;79.50;99916.78;15852189;28;20123;-49
2024/02/08 05:37:56;;;;;;;0.00;0.00;;;;;;;0.37;78.59;99922.06;15852289;28;20039;-51
2024/02/08 05:45:32;;;;;;;0.63;0.57;;;;;;;-0.21;81.48;99925.59;15841315;28;20068;-49
2024/02/08 05:53:09;;;;;;;0.00;0.00;;;;;;;-0.14;80.11;99908.97;15850407;28;20047;-49
2024/02/08 06:00:52;;;;;;;0.22;0.22;;;;;;;0.06;80.12;99898.13;15833751;28;20055;-49
2024/02/08 06:08:26;;;;;;;0.00;0.00;;;;;;;-0.31;82.46;99888.81;15827881;28;20078;-53
2024/02/08 06:16:14;;;;;;;0.00;0.00;;;;;;;-0.66;83.35;99881.94;15802118;28;20051;-49
2024/02/08 06:23:48;;;;;;;0.10;0.10;;;;;;;0.16;81.32;99894.34;15818293;28;20404;-51
2024/02/08 06:31:29;;;;;;;0.03;0.03;;;;;;;0.07;80.91;99908.50;15808704;28;20051;-51
2024/02/08 06:39:20;;;;;;;1.65;1.55;;;;;;;0.08;80.40;99915.44;15850985;28;20071;-52
2024/02/08 06:47:18;;;;;;;0.10;0.10;;;;;;;0.69;79.32;99911.47;15839474;28;20074;-48
2024/02/08 07:42:12;;;;;;;0.47;0.47;;;;;;;-0.09;85.22;99922.50;15838132;28;20040;-45
2024/02/08 07:49:49;;;;;;;2.58;2.35;;;;;;;0.60;81.69;99944.16;15795778;28;20374;-46
2024/02/08 07:57:26;;;;;;;1.17;0.35;;;;;;;0.93;80.53;99931.78;15814118;28;20105;-47
2024/02/08 08:05:14;;;;;;;2.75;0.73;;;;;;;1.03;79.27;99902.53;15820000;28;20036;-46
2024/02/08 08:12:50;;;;;;;0.35;0.35;;;;;;;1.13;79.79;99899.69;15813637;28;20067;-49
2024/02/08 08:36:28;;;;;;;0.10;0.10;;;;;;;0.79;80.53;99905.19;15800360;28;20070;-46
2024/02/08 08:44:06;;;;;;;0.17;0.17;;;;;;;1.48;79.40;99879.88;15801054;28;20048;-43
2024/02/08 08:51:43;;;;;;;0.20;0.20;;;;;;;1.06;79.67;99891.59;15825805;28;20237;-44
2024/02/08 08:59:19;;;;;;;0.00;0.00;;;;;;;1.18;80.00;99897.34;15828471;28;20040;-44
2024/02/08 09:06:54;;;;;;;0.00;0.00;;;;;;;1.50;79.07;99905.16;15817366;28;20512;-44
2024/02/08 09:14:30;;;;;;;0.55;0.52;;;;;;;1.53;79.79;99888.13;15835933;28;20496;-47
2024/02/08 09:22:06;;;;;;;1.27;0.30;;;;;;;1.67;80.37;99860.09;15812876;28;20179;-49
2024/02/08 09:29:42;;;;;;;3.03;0.82;;;;;;;1.70;81.00;99873.81;15806773;28;20127;-47
2024/02/08 09:37:17;;;;;;;0.45;0.45;;;;;;;1.93;80.41;99886.25;15806212;28;20504;-52
2024/02/08 09:44:56;;;;;;;0.10;0.10;;;;;;;2.44;78.38;99881.25;15815852;28;20038;-48
2024/02/08 09:52:34;;;;;;;0.28;0.28;;;;;;;2.46;77.83;99871.28;15815760;28;20048;-44
2024/02/08 10:00:34;;;;;;;0.40;0.40;;;;;;;2.19;82.42;99886.75;15799509;28;20043;-50
2024/02/08 10:08:09;;;;;;;0.47;0.47;;;;;;;3.02;78.93;99869.91;15845483;28;20449;-49
2024/02/08 10:15:44;;;;;;;0.47;0.47;;;;;;;2.99;78.37;99854.38;15867520;28;20071;-48
2024/02/08 10:23:35;;;;;;;1.05;1.00;;;;;;;3.21;78.14;99841.19;15867044;28;20051;-47
2024/02/08 10:31:12;;;;;;;0.20;0.20;;;;;;;2.80;79.44;99823.94;15866726;28;20512;-46
2024/02/08 10:38:55;;;;;;;0.28;0.20;;;;;;;3.32;79.67;99833.59;15848423;28;20104;-46
2024/02/08 10:46:32;;;;;;;0.28;0.28;;;;;;;3.87;76.98;99810.13;15849026;28;20279;-48
2024/02/08 10:54:14;;;;;;;0.10;0.10;;;;;;;4.05;76.05;99813.13;15810894;28;20510;-49
2024/02/08 11:02:01;;;;;;;1.02;0.60;;;;;;;4.20;75.01;99804.28;15863892;28;20048;-48
2024/02/08 11:09:36;;;;;;;1.83;0.63;;;;;;;4.39;75.88;99792.97;15815380;28;20619;-47
2024/02/08 11:17:20;;;;;;;0.05;0.05;;;;;;;4.79;74.05;99796.69;15823248;28;20492;-45
2024/02/08 11:24:58;;;;;;;0.45;0.40;;;;;;;4.42;74.85;99803.19;15831567;28;20447;-48
2024/02/08 11:32:34;;;;;;;0.52;0.52;;;;;;;4.51;75.17;99790.59;15800193;28;20067;-45
2024/02/08 11:40:11;;;;;;;0.22;0.22;;;;;;;4.57;73.80;99777.38;15795155;28;20051;-46
2024/02/08 11:47:48;;;;;;;0.50;0.50;;;;;;;4.42;74.19;99770.50;15809557;28;20136;-48
2024/02/08 11:55:23;;;;;;;1.88;1.13;;;;;;;4.63;74.47;99772.28;15838345;28;20039;-46
2024/02/08 12:02:58;;;;;;;0.70;0.63;;;;;;;4.69;73.98;99758.22;15833260;28;20130;-47
2024/02/08 12:10:32;;;;;;;1.73;1.15;;;;;;;4.57;74.38;99742.00;15798030;28;20032;-50
2024/02/08 12:18:06;;;;;;;0.10;0.10;;;;;;;4.81;73.63;99733.53;15828557;28;20036;-48
2024/02/08 12:25:42;;;;;;;0.03;0.03;;;;;;;5.33;72.61;99718.78;15860471;28;20051;-47
2024/02/08 12:33:21;;;;;;;0.20;0.20;;;;;;;5.81;70.86;99696.53;15860023;28;20089;-49
2024/02/08 12:40:56;;;;;;;0.05;0.05;;;;;;;5.52;70.70;99693.22;15841829;28;20051;-46
2024/02/08 12:48:30;;;;;;;0.32;0.32;;;;;;;5.43;72.24;99683.78;15823712;28;20044;-45
2024/02/08 12:56:09;;;;;;;0.10;0.10;;;;;;;5.45;71.66;99675.59;15793258;28;20036;-47
2024/02/08 13:03:43;;;;;;;0.93;0.50;;;;;;;5.70;70.28;99670.53;15774085;28;20060;-53
2024/02/08 13:11:21;;;;;;;0.28;0.28;;;;;;;5.75;69.24;99657.41;15815775;28;20031;-47
2024/02/08 13:18:55;;;;;;;0.10;0.10;;;;;;;5.88;66.71;99657.41;15858907;28;20032;-47
2024/02/08 13:26:30;;;;;;;0.30;0.30;;;;;;;5.54;67.73;99655.75;15858862;28;20047;-50
2024/02/08 13:34:03;;;;;;;0.30;0.30;;;;;;;6.05;67.47;99647.97;15815059;22;20150;-50
2024/02/08 13:41:46;;;;;;;;;;;;;;;5.21;72.19;99637.09;15819201;28;20039;-52
2024/02/08 13:49:21;;;;;;;0.00;0.00;;;;;;;5.51;71.19;99635.69;15810071;28;19920;-51
2024/02/08 13:56:57;;;;;;;0.60;0.52;;;;;;;5.20;71.97;99625.63;15807568;28;20124;-54
2024/02/08 14:04:49;;;;;;;1.08;0.60;;;;;;;5.79;69.36;99624.84;15806717;28;20113;-50
2024/02/08 14:12:25;;;;;;;0.00;0.00;;;;;;;6.20;66.65;99620.28;15785988;28;20072;-51
2024/02/08 14:19:59;;;;;;;0.32;0.32;;;;;;;5.09;70.26;99599.66;15817612;28;20056;-52
2024/02/08 14:27:40;;;;;;;0.00;0.00;;;;;;;5.85;69.63;99616.03;15806457;28;20172;-50
2024/02/08 14:35:16;;;;;;;0.40;0.40;;;;;;;5.95;68.15;99620.94;15793308;28;20050;-52
2024/02/08 14:42:56;;;;;;;0.10;0.10;;;;;;;5.00;72.67;99614.16;15824309;28;20043;-54
2024/02/08 14:50:51;;;;;;;0.30;0.30;;;;;;;4.90;72.40;99603.91;15793991;28;20044;-52
2024/02/08 14:58:32;;;;;;;0.00;0.00;;;;;;;5.49;71.08;99612.97;15786349;28;20463;-53
2024/02/08 15:06:31;;;;;;;0.88;0.20;;;;;;;5.31;72.91;99617.03;15807514;28;20040;-53
2024/02/08 15:14:03;;;;;;;0.20;0.20;;;;;;;4.84;73.18;99608.16;15808384;28;20070;-56
2024/02/08 15:21:36;;;;;;;0.20;0.20;;;;;;;4.82;74.08;99586.28;15802699;28;20475;-53
2024/02/08 15:29:32;;;;;;;0.17;0.17;;;;;;;4.89;72.76;99575.66;15801102;28;20044;-53
2024/02/08 15:37:31;;;;;;;0.63;0.63;;;;;;;4.60;73.33;99569.66;15783129;28;20113;-53
2024/02/08 15:45:11;;;;;;;0.55;0.32;;;;;;;4.53;73.62;99560.88;15807746;28;20412;-56
2024/02/08 15:52:47;;;;;;;1.35;0.65;;;;;;;4.60;74.03;99551.06;15810893;28;20450;-52
2024/02/08 16:01:01;;;;;;;0.25;0.20;;;;;;;3.76;77.20;99532.75;15799415;28;20043;-51
2024/02/08 16:08:33;;;;;;;0.03;0.03;;;;;;;3.98;76.81;99524.69;15799269;28;20028;-51
2024/02/08 16:16:08;;;;;;;0.43;0.43;;;;;;;3.91;77.46;99513.22;15821570;28;20048;-48
2024/02/08 16:23:46;;;;;;;0.65;0.65;;;;;;;3.76;79.05;99514.16;15826744;28;20064;-50
2024/02/08 16:31:25;;;;;;;0.65;0.57;;;;;;;3.63;79.18;99502.66;15842600;28;20031;-49
2024/02/08 16:39:06;;;;;;;0.20;0.20;;;;;;;3.37;80.22;99493.53;15859134;28;20115;-51
2024/02/08 16:46:51;;;;;;;0.05;0.05;;;;;;;3.68;79.37;99487.78;15858453;28;20040;-52
2024/02/08 16:54:33;;;;;;;0.00;0.00;;;;;;;3.90;78.43;99475.25;15829001;28;20059;-51
2024/02/08 17:02:19;;;;;;;0.00;0.00;;;;;;;4.07;76.32;99463.25;15784458;28;20543;-53
2024/02/08 17:09:57;;;;;;;0.20;0.20;;;;;;;3.76;77.54;99462.94;15854730;28;20454;-51
2024/02/08 17:17:38;;;;;;;0.38;0.38;;;;;;;3.95;76.83;99464.03;15866052;28;20038;-52
2024/02/08 17:25:24;;;;;;;0.73;0.73;;;;;;;4.00;77.04;99470.38;15831655;28;20047;-49
2024/02/08 17:33:00;;;;;;;0.03;0.03;;;;;;;3.90;76.32;99475.25;15873298;28;20100;-50
2024/02/08 17:40:35;;;;;;;0.17;0.17;;;;;;;3.69;77.85;99473.53;15856559;28;20487;-49
2024/02/08 17:48:13;;;;;;;0.00;0.00;;;;;;;3.91;76.29;99484.84;15842834;28;20039;-50
2024/02/08 17:55:47;;;;;;;0.60;0.60;;;;;;;4.20;75.26;99504.97;15870664;28;20075;-49
2024/02/08 18:03:26;;;;;;;0.00;0.00;;;;;;;3.98;75.86;99491.00;15846170;28;20047;-52
2024/02/08 18:11:04;;;;;;;0.30;0.30;;;;;;;4.07;77.57;99504.94;15811439;28;20090;-53
2024/02/08 18:18:41;;;;;;;0.45;0.45;;;;;;;3.55;74.44;99519.56;15872690;28;20507;-50
2024/02/08 18:26:27;;;;;;;0.00;0.00;;;;;;;3.45;72.16;99484.59;15814133;28;20067;-48
2024/02/08 18:34:02;;;;;;;0.28;0.28;;;;;;;3.50;74.62;99506.06;15832385;28;20356;-52
2024/02/08 18:41:50;;;;;;;0.65;0.65;;;;;;;3.24;76.44;99504.06;15854127;28;20085;-49
2024/02/08 18:49:28;;;;;;;0.00;0.00;;;;;;;2.84;76.66;99463.16;15829646;28;20048;-48
2024/02/08 18:57:04;;;;;;;0.00;0.00;;;;;;;2.68;76.89;99501.34;15805494;28;20028;-50
2024/02/08 19:04:39;;;;;;;0.00;0.00;;;;;;;2.82;78.04;99489.84;15828636;28;20079;-52
2024/02/08 19:12:14;;;;;;;0.00;0.00;;;;;;;2.72;79.39;99494.66;15866476;28;20275;-48
2024/02/08 19:19:49;;;;;;;0.00;0.00;;;;;;;2.11;82.66;99488.94;15865212;28;20167;-47
2024/02/08 19:27:22;;;;;;;0.00;0.00;;;;;;;1.40;86.29;99470.94;15864889;28;20039;-49
2024/02/08 19:35:04;;;;;;;0.10;0.10;;;;;;;1.42;86.93;99458.34;15814686;22;20101;-47
2024/02/08 19:42:38;;;;;;;0.10;0.10;;;;;;;1.15;87.00;99451.06;15775570;28;20040;-48
2024/02/08 19:50:16;;;;;;;0.10;0.10;;;;;;;0.98;87.73;99450.41;15765757;28;20063;-45
2024/02/08 19:57:57;;;;;;;1.08;0.95;;;;;;;1.15;87.79;99443.13;15790059;28;20044;-46
2024/02/08 20:05:35;;;;;;;0.00;0.00;;;;;;;0.99;87.54;99426.44;15790230;28;20536;-46
2024/02/08 20:13:14;;;;;;;1.55;0.55;;;;;;;0.97;88.94;99412.59;15788995;28;20561;-46
2024/02/08 20:20:51;;;;;;;0.45;0.45;;;;;;;0.87;88.49;99406.75;15780584;28;20044;-46
2024/02/08 20:28:31;;;;;;;0.25;0.25;;;;;;;0.72;88.90;99398.00;15737601;28;20033;-49
2024/02/08 20:36:08;;;;;;;0.10;0.10;;;;;;;0.79;88.75;99388.31;15777411;28;20159;-49
2024/02/08 20:43:47;;;;;;;0.00;0.00;;;;;;;0.79;89.00;99388.31;15778976;28;20095;-49
2024/02/08 20:51:24;;;;;;;0.22;0.22;;;;;;;0.86;88.92;99383.16;15786039;28;20044;-46
2024/02/08 20:59:05;;;;;;;0.00;0.00;;;;;;;0.67;88.72;99371.31;15736286;28;20041;-47
2024/02/08 21:06:46;;;;;;;0.00;0.00;;;;;;;1.01;88.57;99354.91;15767606;28;20040;-45
2024/02/08 21:14:21;;;;;;;0.05;0.05;;;;;;;0.83;90.68;99351.81;15796530;28;20040;-48
2024/02/08 21:21:58;;;;;;;0.38;0.38;;;;;;;0.65;89.34;99329.25;15795931;28;20459;-47
2024/02/08 21:29:37;;;;;;;1.00;0.98;;;;;;;0.86;89.61;99339.06;15788072;28;20573;-48
2024/02/08 21:37:13;;;;;;;2.45;1.75;;;;;;;0.52;90.53;99334.31;15772811;28;20036;-50
2024/02/08 21:44:48;;;;;;;0.52;0.45;;;;;;;0.59;90.62;99337.88;15782906;28;20044;-49
2024/02/08 21:52:26;;;;;;;0.75;0.75;;;;;;;0.74;90.19;99335.22;15776629;28;20101;-47
2024/02/08 22:00:00;;;;;;;1.13;1.05;;;;;;;0.58;89.47;99328.31;15805694;28;20036;-46
2024/02/08 22:07:35;;;;;;;0.00;0.00;;;;;;;0.64;89.80;99324.13;15786782;28;20458;-48
2024/02/08 22:15:09;;;;;;;0.15;0.15;;;;;;;0.60;91.12;99326.28;15794101;28;20435;-47
2024/02/08 22:22:45;;;;;;;0.10;0.10;;;;;;;0.41;90.76;99321.53;15802476;28;20623;-44
2024/02/08 22:30:19;;;;;;;0.00;0.00;;;;;;;0.60;90.67;99320.19;15765146;28;20135;-47
2024/02/08 22:37:54;;;;;;;0.00;0.00;;;;;;;0.35;91.07;99325.72;15790119;28;20123;-45
2024/02/08 22:45:29;;;;;;;0.00;0.00;;;;;;;0.69;90.69;99324.41;15758771;28;20047;-46
2024/02/08 22:53:07;;;;;;;0.10;0.10;;;;;;;0.33;91.41;99317.19;15774830;28;20043;-48
2024/02/08 23:00:49;;;;;;;0.03;0.03;;;;;;;0.71;90.68;99315.31;15784828;28;20048;-45
2024/02/08 23:08:27;;;;;;;0.43;0.43;;;;;;;0.51;90.32;99324.75;15779398;28;20035;-46
2024/02/08 23:16:07;;;;;;;0.00;0.00;;;;;;;0.62;89.91;99308.47;15762869;28;20050;-46
2024/02/08 23:23:43;;;;;;;0.10;0.10;;;;;;;0.92;89.38;99295.25;15781824;28;20036;-44
2024/02/08 23:31:21;;;;;;;0.10;0.10;;;;;;;0.65;89.67;99279.06;15782291;28;20044;-50
2024/02/08 23:38:59;;;;;;;0.00;0.00;;;;;;;0.55;90.09;99273.22;15776086;28;20117;-45
2024/02/08 23:46:32;;;;;;;0.00;0.00;;;;;;;0.42;90.19;99270.38;15755938;28;20384;-47
2024/02/08 23:54:10;;;;;;;0.00;0.00;;;;;;;0.31;90.90;99262.94;15773332;28;20058;-48
